This is the latest recevied weather packets stored in our database for station/object JA3VQW-13. If no packets are shown the sender has not sent any weather packets the latest 1 day(s).
| Time | Temp. | Humidity | Pressure | Rain* | Wind** | Luminosity | Snow |
|---|---|---|---|---|---|---|---|
| 1778103690 | 17.78° C | 66% | 1006 hPa | 0 mm | - | - | - |
| 1778102790 | 17.22° C | 68% | 1006 hPa | 0 mm | - | - | - |
| 1778101577 | 16.67° C | 70% | 1006 hPa | 0 mm | - | - | - |
| 1778097390 | 16.67° C | 70% | 1006 hPa | 0 mm | - | - | - |
| 1778096177 | 16.11° C | 71% | 1006 hPa | 0 mm | - | - | - |
| 1778094690 | 16.67° C | 71% | 1007 hPa | 0 mm | - | - | - |
| 1778090190 | 15.56° C | 75% | 1007 hPa | 0 mm | - | - | - |
| 1778089291 | 16.11° C | 74% | 1006 hPa | 0 mm | - | - | - |
| 1778088976 | 16.11° C | 74% | 1007 hPa | 0 mm | - | - | - |
| 1778084792 | 16.11° C | 71% | 1007 hPa | 0 mm | - | - | - |
| 1778083892 | 16.11° C | 71% | 1007 hPa | 0 mm | - | - | - |
| 1778083579 | 16.11° C | 71% | 1008 hPa | 0 mm | - | - | - |
| 1778082992 | 16.67° C | 70% | 1008 hPa | 0 mm | - | - | - |
| 1778078493 | 17.22° C | 64% | 1008 hPa | 0 mm | - | - | - |
| 1778077592 | 17.22° C | 63% | 1009 hPa | 0 mm | - | - | - |
| 1778076378 | 17.22° C | 62% | 1008 hPa | 0 mm | - | - | - |
| 1778073092 | 17.22° C | 61% | 1008 hPa | 0 mm | - | - | - |
| 1778071292 | 17.78° C | 58% | 1008 hPa | 0 mm | - | - | - |
| 1778070979 | 17.78° C | 57% | 1008 hPa | 0 mm | - | - | - |
| 1778067691 | 18.33° C | 54% | 1008 hPa | 0 mm | - | - | - |
| 1778065891 | 18.33° C | 54% | 1008 hPa | 0 mm | - | - | - |
| 1778065578 | 18.33° C | 54% | 1008 hPa | 0 mm | - | - | - |
| 1778063191 | 18.89° C | 52% | 1008 hPa | 0 mm | - | - | - |
| 1778061977 | 18.89° C | 49% | 1008 hPa | 0 mm | - | - | - |
| 1778061392 | 19.44° C | 49% | 1008 hPa | 0 mm | - | - | - |
* Rain latest hour (hover to see other rain measurements)
** Current wind speed in m/s (hover to see current wind gust speed)